Time;durP1;ratioP1;P1;durP2;ratioP2;P2;SDS_P1;SDS_P2;PMS_P1;PMS_P2;Temp;Humidity;BMP_temperature;BMP_pressure;BME280_temperature;BME280_humidity;BME280_pressure;Samples;Min_cycle;Max_cycle;Signal;HPM_P1;HPM_P2
2021/11/16 00:01:48;;;;;;;4.20;2.88;;;;;;;-145.06;100.00;60892.56;4883173;28;19916;-89
2021/11/16 00:04:27;;;;;;;4.70;3.20;;;;;;;-145.06;100.00;60892.56;4858860;28;20029;-87
2021/11/16 00:07:09;;;;;;;5.97;3.80;;;;;;;-145.06;100.00;60892.56;4859114;28;20112;-89
2021/11/16 00:09:47;;;;;;;5.38;3.22;;;;;;;-145.06;100.00;60892.56;4871557;28;20279;-88
2021/11/16 00:12:26;;;;;;;4.63;3.47;;;;;;;-145.06;100.00;60892.56;4875075;28;20029;-89
2021/11/16 00:15:07;;;;;;;4.17;3.37;;;;;;;-145.06;100.00;60892.56;4883233;28;20056;-88
2021/11/16 00:17:47;;;;;;;4.45;2.95;;;;;;;-145.06;100.00;60892.56;4882853;28;20375;-88
2021/11/16 00:20:26;;;;;;;;;;;;;;;-145.06;100.00;60892.56;4877845;28;20029;-88
2021/11/16 00:23:05;;;;;;;3.65;2.47;;;;;;;-145.06;100.00;60892.56;4875265;28;19921;-88
2021/11/16 00:25:47;;;;;;;4.25;3.25;;;;;;;8.17;100.00;60892.56;4873109;28;20040;-88
2021/11/16 00:28:26;;;;;;;4.72;3.10;;;;;;;8.14;100.00;60892.56;4870951;28;20025;-88
2021/11/16 00:31:05;;;;;;;4.40;3.10;;;;;;;-145.06;100.00;60892.56;4885506;28;20518;-89
2021/11/16 00:33:44;;;;;;;4.50;3.15;;;;;;;-145.06;100.00;60892.56;4873264;28;20279;-89
2021/11/16 00:36:23;;;;;;;4.72;3.45;;;;;;;-145.06;100.00;60892.56;4867596;28;20064;-88
2021/11/16 00:39:03;;;;;;;4.13;3.30;;;;;;;-145.06;100.00;60892.56;4880228;28;20056;-88
2021/11/16 00:41:43;;;;;;;5.50;3.85;;;;;;;-145.06;100.00;60892.56;4878085;28;20065;-88
2021/11/16 00:44:22;;;;;;;5.13;3.53;;;;;;;-145.06;100.00;60892.56;4876655;28;20025;-89
2021/11/16 00:47:01;;;;;;;5.32;3.65;;;;;;;-145.06;100.00;60892.56;4869309;28;20033;-88
2021/11/16 00:49:40;;;;;;;4.03;3.30;;;;;;;8.41;100.00;60892.56;4859784;28;20531;-88
2021/11/16 00:52:21;;;;;;;5.18;3.47;;;;;;;-145.06;100.00;60892.56;4858374;28;20025;-88
2021/11/16 00:55:00;;;;;;;5.22;3.47;;;;;;;-145.06;100.00;60892.56;4858056;28;20045;-89
2021/11/16 00:57:39;;;;;;;4.73;3.47;;;;;;;-145.06;100.00;60892.56;4865472;28;20581;-88
2021/11/16 01:00:18;;;;;;;4.15;3.05;;;;;;;-145.06;100.00;60892.56;4877502;28;20033;-88
2021/11/16 01:02:58;;;;;;;4.55;3.38;;;;;;;-145.06;100.00;60892.56;4857814;28;20030;-88
2021/11/16 01:05:38;;;;;;;4.97;3.55;;;;;;;-145.06;100.00;60892.56;4858719;28;20033;-89
2021/11/16 01:08:18;;;;;;;5.65;3.50;;;;;;;-145.06;100.00;60892.56;4859901;28;20033;-88
2021/11/16 01:10:57;;;;;;;5.15;3.60;;;;;;;-145.06;100.00;60892.56;4870118;28;20028;-88
2021/11/16 01:13:37;;;;;;;4.35;3.33;;;;;;;-145.06;100.00;60892.56;4889259;28;20364;-89
2021/11/16 01:16:15;;;;;;;5.13;3.47;;;;;;;-145.06;100.00;60892.56;4896836;28;20040;-88
2021/11/16 01:18:56;;;;;;;5.57;3.50;;;;;;;-145.06;100.00;60892.56;4898063;28;20033;-89
2021/11/16 01:21:36;;;;;;;5.55;3.75;;;;;;;-145.06;100.00;60892.56;4896601;28;20335;-88
2021/11/16 01:24:16;;;;;;;6.28;4.18;;;;;;;-145.06;100.00;60892.56;4893716;28;20036;-88
2021/11/16 01:26:56;;;;;;;4.68;3.40;;;;;;;8.05;100.00;60892.56;4877131;28;20037;-88
2021/11/16 01:29:37;;;;;;;6.28;3.72;;;;;;;8.06;100.00;60892.56;4872485;28;20684;-87
2021/11/16 01:32:33;;;;;;;5.18;3.58;;;;;;;-145.06;100.00;60892.56;4876062;28;20028;-89
2021/11/16 01:35:12;;;;;;;5.32;3.83;;;;;;;8.07;100.00;60892.56;4884495;28;20029;-88
2021/11/16 01:37:51;;;;;;;5.70;3.50;;;;;;;8.07;100.00;60892.56;4879071;28;20025;-88
2021/11/16 01:40:30;;;;;;;5.88;3.85;;;;;;;8.07;100.00;60892.56;4877710;28;20033;-88
2021/11/16 01:43:10;;;;;;;5.75;4.13;;;;;;;10.68;100.00;60892.56;4872818;28;20506;-88
2021/11/16 01:45:51;;;;;;;5.80;3.75;;;;;;;8.41;100.00;60892.56;4874162;28;20025;-89
2021/11/16 01:48:32;;;;;;;5.72;3.53;;;;;;;-145.06;100.00;60892.56;4876641;28;20490;-88
2021/11/16 01:51:11;;;;;;;5.25;3.63;;;;;;;-145.06;100.00;60892.56;4876315;28;20057;-88
2021/11/16 01:53:56;;;;;;;5.10;3.63;;;;;;;8.73;100.00;60892.56;4876566;28;20036;-87
2021/11/16 01:56:40;;;;;;;5.43;3.80;;;;;;;8.41;100.00;60892.56;4876785;28;20037;-88
2021/11/16 01:59:19;;;;;;;5.22;3.92;;;;;;;-145.06;100.00;60892.56;4876403;28;20033;-88
2021/11/16 02:02:00;;;;;;;5.63;4.13;;;;;;;-145.06;100.00;60892.56;4876229;28;20474;-89
2021/11/16 02:04:40;;;;;;;6.47;4.53;;;;;;;-145.06;100.00;60892.56;4872543;28;20267;-89
2021/11/16 02:07:19;;;;;;;5.68;3.85;;;;;;;-145.06;100.00;60892.56;4894866;28;20063;-88
2021/11/16 02:09:58;;;;;;;5.43;3.80;;;;;;;-145.06;100.00;60892.56;4872298;28;20108;-89
2021/11/16 02:12:37;;;;;;;6.20;4.10;;;;;;;8.08;100.00;60892.56;4868859;28;20025;-87
2021/11/16 02:15:16;;;;;;;5.37;3.93;;;;;;;-145.06;100.00;60892.56;4895224;28;20036;-89
2021/11/16 02:17:54;;;;;;;4.65;3.30;;;;;;;-145.06;100.00;60892.56;4895122;28;20056;-87
2021/11/16 02:20:35;;;;;;;5.15;3.42;;;;;;;-145.06;100.00;60892.56;4895658;28;20033;-88
2021/11/16 02:23:14;;;;;;;4.72;3.42;;;;;;;-145.06;100.00;60892.56;4885571;28;20024;-88
2021/11/16 02:25:54;;;;;;;4.75;3.33;;;;;;;-145.06;100.00;60892.56;4882157;28;20033;-88
2021/11/16 02:28:34;;;;;;;;;;;;;;;-145.06;100.00;60892.56;4896381;28;20036;-88
2021/11/16 02:31:14;;;;;;;3.80;2.97;;;;;;;8.08;100.00;60892.56;4886144;28;19909;-87
2021/11/16 02:33:53;;;;;;;4.22;3.17;;;;;;;8.41;100.00;60892.56;4876025;28;20037;-88
2021/11/16 02:36:34;;;;;;;4.68;3.33;;;;;;;8.05;100.00;60892.56;4875963;28;20467;-89
2021/11/16 02:39:15;;;;;;;5.07;3.45;;;;;;;8.02;100.00;60892.56;4866756;28;20033;-88
2021/11/16 02:41:55;;;;;;;4.28;3.22;;;;;;;-145.06;100.00;60892.56;4868643;28;20032;-88
2021/11/16 02:44:34;;;;;;;5.05;3.80;;;;;;;-145.06;100.00;60892.56;4877154;28;20029;-88
2021/11/16 02:47:13;;;;;;;4.27;3.23;;;;;;;-145.06;100.00;60892.56;4894024;28;20511;-87
2021/11/16 02:49:54;;;;;;;4.70;3.65;;;;;;;-145.06;100.00;60892.56;4872937;28;20353;-88
2021/11/16 02:52:33;;;;;;;6.95;4.10;;;;;;;-145.06;100.00;60892.56;4859701;28;20630;-88
2021/11/16 02:55:12;;;;;;;;;;;;;;;-145.06;100.00;60892.56;4876035;28;20033;-89
2021/11/16 02:57:52;;;;;;;4.77;3.30;;;;;;;-145.06;100.00;60892.56;4879726;28;19912;-89
2021/11/16 03:00:31;;;;;;;5.30;3.57;;;;;;;-145.06;100.00;60892.56;4871410;28;20048;-88
2021/11/16 03:03:10;;;;;;;5.05;3.50;;;;;;;-145.06;100.00;60892.56;4869672;28;20303;-88
2021/11/16 03:05:50;;;;;;;5.87;3.90;;;;;;;-145.06;100.00;60892.56;4875768;28;20631;-89
2021/11/16 03:08:29;;;;;;;4.60;3.10;;;;;;;-145.06;100.00;60892.56;4870084;28;20037;-88
2021/11/16 03:11:10;;;;;;;4.68;3.20;;;;;;;8.00;100.00;60892.56;4871750;28;20029;-88
2021/11/16 03:13:50;;;;;;;4.45;3.30;;;;;;;7.99;100.00;60892.56;4861675;28;20021;-88
2021/11/16 03:16:33;;;;;;;4.97;3.40;;;;;;;-145.06;100.00;60892.56;4882908;28;20033;-89
2021/11/16 03:19:12;;;;;;;5.95;3.70;;;;;;;-145.06;100.00;60892.56;4881421;28;20033;-88
2021/11/16 03:21:58;;;;;;;4.27;3.03;;;;;;;-145.06;100.00;60892.56;4874662;28;20439;-88
2021/11/16 03:24:38;;;;;;;4.40;3.20;;;;;;;-145.06;100.00;60892.56;4876405;28;20029;-88
2021/11/16 03:27:18;;;;;;;4.78;3.63;;;;;;;-145.06;100.00;60892.56;4860681;28;20443;-87
2021/11/16 03:29:59;;;;;;;4.90;3.40;;;;;;;7.96;100.00;60892.56;4879679;28;20474;-88
2021/11/16 03:32:38;;;;;;;4.50;3.03;;;;;;;-145.06;100.00;60892.56;4870007;28;20021;-88
2021/11/16 03:35:17;;;;;;;4.10;2.90;;;;;;;-145.06;100.00;60892.56;4866031;28;20030;-88
2021/11/16 03:37:58;;;;;;;3.90;2.70;;;;;;;7.95;100.00;60892.56;4870078;28;20101;-88
2021/11/16 03:40:39;;;;;;;4.22;3.00;;;;;;;-145.06;100.00;60892.56;4866319;28;20033;-88
2021/11/16 03:43:19;;;;;;;4.22;2.80;;;;;;;187.52;100.00;60892.56;4872098;28;20037;-88
2021/11/16 03:45:59;;;;;;;4.93;3.17;;;;;;;-145.06;100.00;60892.56;4869106;28;20889;-88
2021/11/16 03:48:38;;;;;;;4.90;2.72;;;;;;;-145.06;100.00;60892.56;4873698;28;20033;-88
2021/11/16 03:51:17;;;;;;;3.67;2.83;;;;;;;-145.06;100.00;60892.56;4870852;28;20033;-88
2021/11/16 03:53:57;;;;;;;3.93;2.70;;;;;;;-145.06;100.00;60892.56;4884205;28;20020;-88
2021/11/16 03:56:36;;;;;;;4.60;2.78;;;;;;;-145.06;100.00;60892.56;4869914;28;20605;-88
2021/11/16 03:59:15;;;;;;;3.92;2.72;;;;;;;-145.06;100.00;60892.56;4879257;28;20041;-88
2021/11/16 04:01:54;;;;;;;3.87;2.73;;;;;;;8.08;100.00;60892.56;4869653;28;20025;-88
2021/11/16 04:04:33;;;;;;;3.58;2.70;;;;;;;-145.06;100.00;60892.56;4869571;28;20021;-87
2021/11/16 04:07:12;;;;;;;3.63;2.65;;;;;;;-145.06;100.00;60892.56;4875075;28;20372;-88
2021/11/16 04:09:51;;;;;;;3.28;2.75;;;;;;;7.98;100.00;60892.56;4874170;28;20475;-88
2021/11/16 04:12:30;;;;;;;3.47;2.43;;;;;;;-145.06;100.00;60892.56;4867538;28;20037;-88
2021/11/16 04:15:10;;;;;;;3.40;2.53;;;;;;;7.95;100.00;60892.56;4869755;28;20044;-88
2021/11/16 04:17:52;;;;;;;3.50;2.47;;;;;;;7.94;100.00;60892.56;4875868;28;20029;-88
2021/11/16 04:20:34;;;;;;;4.38;3.10;;;;;;;-145.06;100.00;60892.56;4865828;28;20033;-88
2021/11/16 04:23:17;;;;;;;4.55;3.30;;;;;;;-145.06;100.00;60892.56;4878232;28;20052;-88
2021/11/16 04:25:56;;;;;;;5.55;3.30;;;;;;;-145.06;100.00;60892.56;4880809;28;20025;-88
2021/11/16 04:28:35;;;;;;;;;;;;;;;-145.06;100.00;60892.56;4880833;28;20056;-88
2021/11/16 04:31:14;;;;;;;5.07;3.00;;;;;;;-145.06;100.00;60892.56;4873045;28;19921;-88
2021/11/16 04:34:00;;;;;;;4.60;2.95;;;;;;;-145.06;100.00;60892.56;4882927;28;20025;-88
2021/11/16 04:36:39;;;;;;;4.93;3.17;;;;;;;-145.06;100.00;60892.56;4866960;28;20052;-89
2021/11/16 04:39:18;;;;;;;4.53;3.25;;;;;;;7.88;100.00;60892.56;4878970;28;20037;-88
2021/11/16 04:41:57;;;;;;;4.50;3.17;;;;;;;7.88;100.00;60892.56;4873911;28;20025;-88
2021/11/16 04:44:37;;;;;;;5.43;3.57;;;;;;;-145.06;100.00;60892.56;4870765;28;20029;-88
2021/11/16 04:47:23;;;;;;;5.95;3.75;;;;;;;-145.06;100.00;60892.56;4889931;28;20271;-88
2021/11/16 04:50:13;;;;;;;4.57;3.30;;;;;;;-145.06;100.00;60892.56;4874147;28;20028;-87
2021/11/16 04:53:06;;;;;;;4.88;3.20;;;;;;;-145.06;100.00;60892.56;4871236;28;20139;-88
2021/11/16 05:04:23;;;;;;;6.88;4.05;;;;;;;-145.06;100.00;60892.56;4870916;28;20112;-88
2021/11/16 05:07:04;;;;;;;4.72;3.60;;;;;;;-145.06;100.00;60892.56;4874361;28;20060;-87
2021/11/16 05:09:49;;;;;;;5.10;3.30;;;;;;;7.74;100.00;60892.56;4872188;28;20041;-88
2021/11/16 05:12:31;;;;;;;4.82;3.35;;;;;;;7.74;100.00;60892.56;4878521;28;20033;-88
2021/11/16 05:15:14;;;;;;;4.65;3.20;;;;;;;-145.06;100.00;60892.56;4886699;28;20063;-88
2021/11/16 05:17:54;;;;;;;4.32;2.78;;;;;;;7.76;100.00;60892.56;4873162;28;20036;-88
2021/11/16 05:20:33;;;;;;;5.03;3.22;;;;;;;-145.06;100.00;60892.56;4875355;28;20838;-88
2021/11/16 05:23:12;;;;;;;5.57;3.60;;;;;;;-145.06;100.00;60892.56;4873586;28;20033;-88
2021/11/16 05:25:54;;;;;;;4.22;3.13;;;;;;;7.79;100.00;60892.56;4871063;28;20099;-88
2021/11/16 05:28:33;;;;;;;4.63;3.30;;;;;;;-145.06;100.00;60892.56;4871594;28;20038;-88
2021/11/16 05:31:16;;;;;;;4.50;3.10;;;;;;;-145.06;100.00;60892.56;4875702;28;20025;-87
2021/11/16 05:33:56;;;;;;;5.38;3.33;;;;;;;7.92;100.00;60892.56;4866733;28;20510;-88
2021/11/16 05:36:35;;;;;;;4.90;3.35;;;;;;;7.92;100.00;60892.56;4876177;28;20044;-88
2021/11/16 05:39:14;;;;;;;4.07;3.10;;;;;;;-145.06;100.00;60892.56;4872874;28;20507;-88
2021/11/16 05:41:52;;;;;;;4.70;3.35;;;;;;;-145.06;100.00;60892.56;4861543;28;20041;-88
2021/11/16 05:44:32;;;;;;;4.57;2.95;;;;;;;-145.06;100.00;60892.56;4856613;28;20479;-88
2021/11/16 05:47:11;;;;;;;4.07;2.88;;;;;;;7.82;100.00;60892.56;4869377;28;20033;-87
2021/11/16 05:49:50;;;;;;;4.83;3.33;;;;;;;-145.06;100.00;60892.56;4870137;28;20029;-88
2021/11/16 05:52:29;;;;;;;4.25;3.05;;;;;;;8.08;100.00;60892.56;4868690;28;20264;-88
2021/11/16 05:55:08;;;;;;;4.53;2.90;;;;;;;-145.06;100.00;60892.56;4882227;28;20020;-88
2021/11/16 05:57:50;;;;;;;5.53;3.15;;;;;;;7.84;100.00;60892.56;4873965;28;20041;-88
2021/11/16 06:00:29;;;;;;;4.50;3.25;;;;;;;-145.06;100.00;60892.56;4882498;28;20036;-88
2021/11/16 06:03:09;;;;;;;5.20;3.35;;;;;;;-145.06;100.00;60892.56;4872444;28;20045;-88
2021/11/16 06:05:48;;;;;;;;;;;;;;;-145.06;100.00;60892.56;4874470;28;20036;-88
2021/11/16 06:08:29;;;;;;;4.38;2.83;;;;;;;-145.06;100.00;60892.56;4877776;28;19912;-88
2021/11/16 06:11:08;;;;;;;3.83;2.65;;;;;;;7.82;100.00;60892.56;4867722;28;20052;-87
2021/11/16 06:13:50;;;;;;;5.87;3.30;;;;;;;-145.06;100.00;60892.56;4867415;28;20033;-88
2021/11/16 06:16:29;;;;;;;4.05;2.90;;;;;;;-145.06;100.00;60892.56;4865402;28;20599;-88
2021/11/16 06:19:08;;;;;;;4.45;3.30;;;;;;;7.92;100.00;60892.56;4867054;28;20033;-88
2021/11/16 06:21:48;;;;;;;4.88;3.00;;;;;;;-145.06;100.00;60892.56;4876283;28;20057;-88
2021/11/16 06:24:27;;;;;;;4.13;3.03;;;;;;;7.76;100.00;60892.56;4868621;28;20028;-87
2021/11/16 06:27:06;;;;;;;4.23;2.80;;;;;;;-145.06;100.00;60892.56;4888424;28;20028;-87
2021/11/16 06:29:45;;;;;;;;;;;;;;;-145.06;100.00;60892.56;4869594;28;20037;-87
2021/11/16 06:32:25;;;;;;;4.03;2.60;;;;;;;-145.06;100.00;60892.56;4870186;28;19916;-88
2021/11/16 06:35:05;;;;;;;2.97;2.15;;;;;;;7.70;100.00;60892.56;4888022;28;20028;-88
2021/11/16 06:37:47;;;;;;;4.20;3.00;;;;;;;7.70;100.00;60892.56;4871261;28;20029;-87
2021/11/16 06:40:26;;;;;;;4.00;2.85;;;;;;;-145.06;100.00;60892.56;4870060;28;20032;-87
2021/11/16 06:43:05;;;;;;;4.32;2.97;;;;;;;7.67;100.00;60892.56;4869369;28;20029;-86
2021/11/16 06:45:49;;;;;;;4.50;2.85;;;;;;;7.66;100.00;60892.56;4859369;28;20677;-87
2021/11/16 06:48:29;;;;;;;3.38;2.42;;;;;;;-145.06;100.00;60892.56;4870205;28;20033;-87
2021/11/16 06:51:08;;;;;;;3.78;2.58;;;;;;;-145.06;100.00;60892.56;4875960;28;20462;-86
2021/11/16 06:53:47;;;;;;;2.90;2.07;;;;;;;-145.06;100.00;60892.56;4871797;28;20029;-87
2021/11/16 06:56:26;;;;;;;3.70;2.47;;;;;;;-145.06;100.00;60892.56;4872607;28;20040;-87
2021/11/16 06:59:06;;;;;;;3.13;2.17;;;;;;;-145.06;100.00;60892.56;4869870;28;20371;-87
2021/11/16 07:01:45;;;;;;;;;;;;;;;-145.06;100.00;60892.56;4875788;28;20028;-86
2021/11/16 07:04:24;;;;;;;3.53;2.42;;;;;;;7.58;100.00;60892.56;4894255;28;19909;-87
2021/11/16 07:07:04;;;;;;;3.85;2.50;;;;;;;-145.06;100.00;60892.56;4859384;28;20507;-86
2021/11/16 07:09:44;;;;;;;4.00;2.88;;;;;;;7.56;100.00;60892.56;4874694;28;20048;-88
2021/11/16 07:12:26;;;;;;;4.25;2.78;;;;;;;7.76;100.00;60892.56;4869299;28;20553;-87
2021/11/16 07:15:05;;;;;;;4.25;2.75;;;;;;;-145.06;100.00;60892.56;4864491;28;20025;-87
2021/11/16 07:17:44;;;;;;;3.80;2.28;;;;;;;-145.06;100.00;60892.56;4859919;28;20033;-87
2021/11/16 07:20:23;;;;;;;3.63;2.40;;;;;;;-145.06;100.00;60892.56;4872592;28;20029;-86
2021/11/16 07:23:09;;;;;;;4.00;2.80;;;;;;;-145.06;100.00;60892.56;4874368;28;20371;-87
2021/11/16 07:25:48;;;;;;;3.30;2.17;;;;;;;-145.06;100.00;60892.56;4874043;28;20064;-86
2021/11/16 07:28:27;;;;;;;3.65;2.50;;;;;;;-145.06;100.00;60892.56;4874941;28;20028;-86
2021/11/16 07:31:06;;;;;;;3.75;2.45;;;;;;;-145.06;100.00;60892.56;4876482;28;20029;-87
2021/11/16 07:33:45;;;;;;;3.13;2.13;;;;;;;-145.06;100.00;60892.56;4873850;28;20037;-87
2021/11/16 07:36:24;;;;;;;2.67;1.95;;;;;;;-145.06;100.00;60892.56;4875989;28;20264;-87
2021/11/16 07:39:05;;;;;;;4.68;2.60;;;;;;;-145.06;100.00;60892.56;4871712;28;20025;-87
2021/11/16 07:41:44;;;;;;;3.42;2.45;;;;;;;-145.06;100.00;60892.56;4868607;28;20021;-87
2021/11/16 07:44:23;;;;;;;4.05;2.35;;;;;;;-145.06;100.00;60892.56;4874618;28;20640;-87
2021/11/16 07:47:05;;;;;;;3.75;2.45;;;;;;;-145.06;100.00;60892.56;4867560;28;20029;-87
2021/11/16 07:49:50;;;;;;;4.35;2.70;;;;;;;-145.06;100.00;60892.56;4878755;28;20364;-87
2021/11/16 07:52:29;;;;;;;4.25;2.83;;;;;;;-145.06;100.00;60892.56;4879374;28;20025;-87
2021/11/16 07:55:18;;;;;;;3.92;2.33;;;;;;;-145.06;100.00;60892.56;4868940;28;20096;-86
2021/11/16 07:57:57;;;;;;;3.95;2.67;;;;;;;-145.06;100.00;60892.56;4875027;28;20112;-88
2021/11/16 08:00:40;;;;;;;3.38;2.60;;;;;;;-145.06;100.00;60892.56;4878528;28;20033;-87
2021/11/16 08:03:24;;;;;;;3.40;2.30;;;;;;;-145.06;100.00;60892.56;4872009;28;20034;-88
2021/11/16 08:11:31;;;;;;;3.17;2.57;;;;;;;-145.06;100.00;60892.56;4870181;28;20025;-86
2021/11/16 08:14:15;;;;;;;3.63;2.55;;;;;;;-145.06;100.00;60892.56;4876370;28;20265;-87
2021/11/16 08:16:58;;;;;;;3.05;2.20;;;;;;;-145.06;100.00;60892.56;4866171;28;20029;-87
2021/11/16 08:19:41;;;;;;;3.60;2.33;;;;;;;-145.06;100.00;60892.56;4859955;28;20029;-86
2021/11/16 08:22:20;;;;;;;3.42;1.98;;;;;;;-145.06;100.00;60892.56;4859293;28;20368;-86
2021/11/16 08:24:59;;;;;;;1.93;1.53;;;;;;;-145.06;100.00;60892.56;4859459;28;20029;-87
2021/11/16 08:27:43;;;;;;;2.53;1.73;;;;;;;-145.06;100.00;60892.56;4859942;28;20041;-87
2021/11/16 08:30:23;;;;;;;1.70;1.35;;;;;;;-145.06;100.00;60892.56;4874932;28;20256;-87
2021/11/16 08:33:04;;;;;;;2.60;1.60;;;;;;;-145.06;100.00;60892.56;4867506;28;20021;-87
2021/11/16 08:35:48;;;;;;;2.03;1.60;;;;;;;-145.06;100.00;60892.56;4858912;28;20026;-87
2021/11/16 08:38:33;;;;;;;2.08;1.33;;;;;;;-145.06;100.00;60892.56;4858052;28;20029;-87
2021/11/16 08:41:28;;;;;;;1.67;1.33;;;;;;;-145.06;100.00;60892.56;4869424;28;20029;-87
2021/11/16 08:44:21;;;;;;;1.70;1.38;;;;;;;-145.06;100.00;60892.56;4860774;28;20033;-88
2021/11/16 08:47:12;;;;;;;1.77;1.48;;;;;;;7.26;100.00;60892.56;4875022;28;20048;-87
2021/11/16 08:49:51;;;;;;;2.17;1.60;;;;;;;-145.06;100.00;60892.56;4877647;28;20364;-87
2021/11/16 08:52:32;;;;;;;1.67;1.40;;;;;;;-145.06;100.00;60892.56;4878327;28;20459;-87
2021/11/16 08:55:18;;;;;;;1.75;1.38;;;;;;;-145.06;100.00;60892.56;4877911;28;20033;-86
2021/11/16 08:57:59;;;;;;;1.33;1.23;;;;;;;-145.06;100.00;60892.56;4869854;28;20024;-87
2021/11/16 09:00:44;;;;;;;1.63;1.17;;;;;;;-145.06;100.00;60892.56;4876897;28;20033;-88
2021/11/16 09:03:28;;;;;;;1.50;1.27;;;;;;;-145.06;100.00;60892.56;4877788;28;20029;-86
2021/11/16 09:06:22;;;;;;;1.50;1.20;;;;;;;-145.06;100.00;60892.56;4878337;28;20472;-87
2021/11/16 09:09:12;;;;;;;1.38;1.15;;;;;;;-145.06;100.00;60892.56;4877914;28;20033;-86
2021/11/16 09:12:05;;;;;;;1.65;1.20;;;;;;;-145.06;100.00;60892.56;4865785;28;20013;-86
2021/11/16 09:15:03;;;;;;;1.63;1.23;;;;;;;-145.06;100.00;60892.56;4868710;28;20463;-86
2021/11/16 09:17:42;;;;;;;1.52;1.33;;;;;;;-145.06;100.00;60892.56;4866833;28;20028;-86
2021/11/16 09:20:27;;;;;;;1.38;1.02;;;;;;;-145.06;100.00;60892.56;4867233;28;20034;-86
2021/11/16 09:23:07;;;;;;;1.63;1.33;;;;;;;-145.06;100.00;60892.56;4862143;28;20396;-86
2021/11/16 09:25:50;;;;;;;1.42;1.30;;;;;;;7.52;100.00;60892.56;4859321;28;20037;-87
2021/11/16 09:28:39;;;;;;;2.83;1.33;;;;;;;-145.06;100.00;60892.56;4857452;28;20037;-87
2021/11/16 09:31:28;;;;;;;3.27;1.50;;;;;;;-145.06;100.00;60892.56;4857944;28;20033;-87
2021/11/16 09:34:24;;;;;;;1.77;1.27;;;;;;;-145.06;100.00;60892.56;4874469;28;20268;-87
2021/11/16 09:37:25;;;;;;;1.77;1.23;;;;;;;-145.06;100.00;60892.56;4872535;28;20471;-86
2021/11/16 09:40:04;;;;;;;1.63;1.20;;;;;;;-145.06;100.00;60892.56;4870005;28;20104;-87
2021/11/16 09:42:46;;;;;;;1.30;0.95;;;;;;;-145.06;100.00;60892.56;4870149;28;20029;-87
2021/11/16 09:45:26;;;;;;;1.50;1.10;;;;;;;-145.06;100.00;60892.56;4875008;28;20666;-87
2021/11/16 09:48:05;;;;;;;1.30;1.10;;;;;;;7.55;100.00;60892.56;4860652;28;20025;-86
2021/11/16 09:50:44;;;;;;;1.80;1.23;;;;;;;-145.06;100.00;60892.56;4864590;28;20029;-87
2021/11/16 09:53:23;;;;;;;1.73;1.23;;;;;;;7.59;100.00;60892.56;4857115;28;20033;-86
2021/11/16 09:56:04;;;;;;;2.37;1.40;;;;;;;-145.06;100.00;60892.56;4856904;28;20068;-86
2021/11/16 09:58:44;;;;;;;1.55;1.25;;;;;;;7.68;100.00;60892.56;4868334;28;20471;-86
2021/11/16 10:01:28;;;;;;;;;;;;;;;-145.06;100.00;60892.56;4868953;28;20032;-86
2021/11/16 10:04:19;;;;;;;1.42;1.20;;;;;;;-145.06;100.00;60892.56;4875315;28;20389;-87
2021/11/16 10:06:58;;;;;;;1.65;1.05;;;;;;;-145.06;100.00;60892.56;4891836;28;20052;-86
2021/11/16 10:09:41;;;;;;;1.90;1.60;;;;;;;-145.06;100.00;60892.56;4896561;28;20596;-86
2021/11/16 10:12:23;;;;;;;1.45;1.30;;;;;;;8.08;100.00;60892.56;4866582;28;20057;-87
2021/11/16 10:15:02;;;;;;;1.85;1.48;;;;;;;-145.06;100.00;60892.56;4867484;28;20029;-85
2021/11/16 10:17:47;;;;;;;1.52;1.30;;;;;;;-145.06;100.00;60892.56;4872442;28;20029;-86
2021/11/16 10:20:31;;;;;;;3.05;1.25;;;;;;;-145.06;100.00;60892.56;4876344;28;20041;-87
2021/11/16 10:23:15;;;;;;;1.77;1.38;;;;;;;-145.06;100.00;60892.56;4875153;28;20025;-86
2021/11/16 10:25:55;;;;;;;1.50;1.20;;;;;;;7.78;100.00;60892.56;4876778;28;20021;-87
2021/11/16 10:28:38;;;;;;;1.92;1.30;;;;;;;8.08;100.00;60892.56;4876425;28;20064;-86
2021/11/16 10:31:30;;;;;;;1.65;1.17;;;;;;;7.84;100.00;60892.56;4876851;28;20052;-87
2021/11/16 10:34:09;;;;;;;1.25;0.93;;;;;;;-145.06;100.00;60892.56;4874606;28;20372;-87
2021/11/16 10:37:03;;;;;;;1.47;1.30;;;;;;;-145.06;100.00;60892.56;4876929;28;20064;-87
2021/11/16 10:39:42;;;;;;;1.92;1.17;;;;;;;-145.06;100.00;60892.56;4870666;28;20029;-87
2021/11/16 10:42:21;;;;;;;1.80;1.20;;;;;;;-145.06;100.00;60892.56;4858849;28;20033;-87
2021/11/16 10:45:00;;;;;;;2.22;1.25;;;;;;;8.08;100.00;60892.56;4868097;28;20471;-87
2021/11/16 10:47:40;;;;;;;2.20;1.33;;;;;;;7.99;100.00;60892.56;4873143;28;20033;-87
2021/11/16 10:50:21;;;;;;;1.33;1.13;;;;;;;-145.06;100.00;60892.56;4892174;28;20036;-85
2021/11/16 10:53:09;;;;;;;1.30;0.95;;;;;;;-145.06;100.00;60892.56;4888584;28;20028;-87
2021/11/16 10:55:54;;;;;;;2.45;1.00;;;;;;;-145.06;100.00;60892.56;4858012;28;20534;-87
2021/11/16 10:58:40;;;;;;;1.00;0.85;;;;;;;-145.06;100.00;60892.56;4874340;28;20032;-87
2021/11/16 11:01:23;;;;;;;1.67;1.20;;;;;;;-145.06;100.00;60892.56;4873350;28;20033;-87
2021/11/16 11:04:02;;;;;;;1.40;1.10;;;;;;;-145.06;100.00;60892.56;4859595;28;20029;-87
2021/11/16 11:06:43;;;;;;;1.10;1.00;;;;;;;-145.06;100.00;60892.56;4875720;28;20100;-87
2021/11/16 11:09:23;;;;;;;1.40;1.05;;;;;;;-145.06;100.00;60892.56;4875583;28;20379;-86
2021/11/16 11:12:03;;;;;;;;;;;;;;;-145.06;100.00;60892.56;4883766;28;20021;-86
2021/11/16 11:14:45;;;;;;;1.60;1.20;;;;;;;-145.06;100.00;60892.56;4868788;28;19909;-86
2021/11/16 11:17:32;;;;;;;1.63;1.35;;;;;;;-145.06;100.00;60892.56;4864041;28;20531;-87
2021/11/16 11:20:12;;;;;;;1.55;1.05;;;;;;;-145.06;100.00;60892.56;4867295;28;20021;-87
2021/11/16 11:22:51;;;;;;;2.47;1.30;;;;;;;-145.06;100.00;60892.56;4876597;28;20068;-87
2021/11/16 11:28:29;;;;;;;1.73;1.20;;;;;;;-145.06;100.00;60892.56;4880502;28;20025;-86
2021/11/16 11:31:28;;;;;;;1.33;1.02;;;;;;;-145.06;100.00;60892.56;4880186;28;20021;-87
2021/11/16 11:34:07;;;;;;;1.30;1.10;;;;;;;-145.06;100.00;60892.56;4878634;28;20033;-87
2021/11/16 11:36:46;;;;;;;1.65;1.10;;;;;;;-145.06;100.00;60892.56;4880591;28;20041;-87
2021/11/16 11:39:31;;;;;;;1.95;1.40;;;;;;;-145.06;100.00;60892.56;4878474;28;20036;-86
2021/11/16 11:42:14;;;;;;;2.35;1.30;;;;;;;-145.06;100.00;60892.56;4880864;28;20034;-86
2021/11/16 11:45:08;;;;;;;1.30;1.00;;;;;;;-145.06;100.00;60892.56;4878574;28;20021;-87
2021/11/16 11:47:53;;;;;;;1.27;0.95;;;;;;;-145.06;100.00;60892.56;4872357;28;20427;-86
2021/11/16 11:50:43;;;;;;;1.92;1.40;;;;;;;-145.06;100.00;60892.56;4860850;28;20017;-87
2021/11/16 11:53:24;;;;;;;1.92;1.40;;;;;;;-145.06;100.00;60892.56;4866749;28;20049;-87
2021/11/16 11:56:13;;;;;;;1.58;1.10;;;;;;;-145.06;100.00;60892.56;4860507;28;20065;-87
2021/11/16 11:58:52;;;;;;;1.20;0.93;;;;;;;-145.06;100.00;60892.56;4859774;28;20037;-87
2021/11/16 12:01:32;;;;;;;1.42;1.00;;;;;;;-145.06;100.00;60892.56;4870649;28;20967;-87
2021/11/16 12:04:14;;;;;;;1.17;0.98;;;;;;;-145.06;100.00;60892.56;4876592;28;20108;-87
2021/11/16 12:06:54;;;;;;;1.25;1.02;;;;;;;-145.06;100.00;60892.56;4879143;28;20482;-88
2021/11/16 12:09:34;;;;;;;1.73;1.50;;;;;;;-145.06;100.00;60892.56;4859106;28;20475;-87
2021/11/16 12:12:14;;;;;;;2.67;1.70;;;;;;;-145.06;100.00;60892.56;4867258;28;20440;-87
2021/11/16 12:15:01;;;;;;;1.90;1.40;;;;;;;-145.06;100.00;60892.56;4873004;28;20462;-87
2021/11/16 12:17:49;;;;;;;2.38;1.60;;;;;;;-145.06;100.00;60892.56;4866205;28;20025;-87
2021/11/16 12:20:37;;;;;;;1.80;1.40;;;;;;;-145.06;100.00;60892.56;4860469;28;20029;-86
2021/11/16 12:23:18;;;;;;;2.95;1.83;;;;;;;-145.06;100.00;60892.56;4859150;28;20029;-87
2021/11/16 12:26:07;;;;;;;1.60;1.38;;;;;;;-145.06;100.00;60892.56;4877569;28;20196;-86
2021/11/16 12:28:46;;;;;;;2.30;1.67;;;;;;;-145.06;100.00;60892.56;4887636;28;20033;-87
2021/11/16 12:31:30;;;;;;;1.83;1.40;;;;;;;-145.06;100.00;60892.56;4868737;28;20049;-86
2021/11/16 12:34:09;;;;;;;2.22;1.63;;;;;;;-145.06;100.00;60892.56;4857889;28;20062;-87
2021/11/16 12:36:48;;;;;;;2.63;1.70;;;;;;;-145.06;100.00;60892.56;4859044;28;20037;-87
2021/11/16 12:39:27;;;;;;;1.77;1.37;;;;;;;-145.06;100.00;60892.56;4863623;28;20041;-86